sensor_id;sensor_type;location;lat;lon;timestamp;P1;durP1;ratioP1;P2;durP2;ratioP2
3443;SDS011;1736;52.068;6.968;2023-04-16T00:02:21;47.03;;;19.33;;
3443;SDS011;1736;52.068;6.968;2023-04-16T00:04:48;47.13;;;19.00;;
3443;SDS011;1736;52.068;6.968;2023-04-16T00:07:14;37.93;;;17.40;;
3443;SDS011;1736;52.068;6.968;2023-04-16T00:09:42;47.97;;;19.27;;
3443;SDS011;1736;52.068;6.968;2023-04-16T00:12:10;43.27;;;18.77;;
3443;SDS011;1736;52.068;6.968;2023-04-16T00:14:37;48.47;;;19.57;;
3443;SDS011;1736;52.068;6.968;2023-04-16T00:17:03;43.27;;;19.50;;
3443;SDS011;1736;52.068;6.968;2023-04-16T00:19:30;39.23;;;18.80;;
3443;SDS011;1736;52.068;6.968;2023-04-16T00:21:56;48.50;;;20.90;;
3443;SDS011;1736;52.068;6.968;2023-04-16T00:24:23;49.43;;;19.10;;
3443;SDS011;1736;52.068;6.968;2023-04-16T00:26:51;44.20;;;18.87;;
3443;SDS011;1736;52.068;6.968;2023-04-16T00:29:17;43.57;;;18.27;;
3443;SDS011;1736;52.068;6.968;2023-04-16T00:31:44;43.33;;;19.13;;
3443;SDS011;1736;52.068;6.968;2023-04-16T00:34:10;47.63;;;19.57;;
3443;SDS011;1736;52.068;6.968;2023-04-16T00:36:37;43.80;;;20.47;;
3443;SDS011;1736;52.068;6.968;2023-04-16T00:39:03;45.47;;;22.00;;
3443;SDS011;1736;52.068;6.968;2023-04-16T00:41:30;48.40;;;21.40;;
3443;SDS011;1736;52.068;6.968;2023-04-16T00:43:58;48.90;;;21.97;;
3443;SDS011;1736;52.068;6.968;2023-04-16T00:46:24;53.73;;;19.20;;
3443;SDS011;1736;52.068;6.968;2023-04-16T00:48:52;49.63;;;20.83;;
3443;SDS011;1736;52.068;6.968;2023-04-16T00:51:19;45.60;;;19.87;;
3443;SDS011;1736;52.068;6.968;2023-04-16T00:53:47;49.97;;;21.93;;
3443;SDS011;1736;52.068;6.968;2023-04-16T00:56:14;53.43;;;22.07;;
3443;SDS011;1736;52.068;6.968;2023-04-16T00:58:41;47.47;;;19.60;;
3443;SDS011;1736;52.068;6.968;2023-04-16T01:01:09;44.47;;;20.50;;
3443;SDS011;1736;52.068;6.968;2023-04-16T01:03:38;85.70;;;22.63;;
3443;SDS011;1736;52.068;6.968;2023-04-16T01:06:07;49.43;;;21.00;;
3443;SDS011;1736;52.068;6.968;2023-04-16T01:08:34;63.77;;;25.73;;
3443;SDS011;1736;52.068;6.968;2023-04-16T01:11:01;48.33;;;21.97;;
3443;SDS011;1736;52.068;6.968;2023-04-16T01:13:28;51.63;;;21.57;;
3443;SDS011;1736;52.068;6.968;2023-04-16T01:15:54;54.63;;;24.10;;
3443;SDS011;1736;52.068;6.968;2023-04-16T01:18:22;57.33;;;24.53;;
3443;SDS011;1736;52.068;6.968;2023-04-16T01:20:53;55.77;;;22.63;;
3443;SDS011;1736;52.068;6.968;2023-04-16T01:23:20;58.57;;;24.97;;
3443;SDS011;1736;52.068;6.968;2023-04-16T01:25:47;55.33;;;24.57;;
3443;SDS011;1736;52.068;6.968;2023-04-16T01:28:13;66.40;;;25.80;;
3443;SDS011;1736;52.068;6.968;2023-04-16T01:30:40;61.60;;;24.57;;
3443;SDS011;1736;52.068;6.968;2023-04-16T01:33:06;70.53;;;26.70;;
3443;SDS011;1736;52.068;6.968;2023-04-16T01:35:33;55.93;;;24.30;;
3443;SDS011;1736;52.068;6.968;2023-04-16T01:38:01;59.57;;;25.07;;
3443;SDS011;1736;52.068;6.968;2023-04-16T01:40:28;53.13;;;23.67;;
3443;SDS011;1736;52.068;6.968;2023-04-16T01:42:55;73.73;;;27.20;;
3443;SDS011;1736;52.068;6.968;2023-04-16T01:45:21;52.83;;;22.60;;
3443;SDS011;1736;52.068;6.968;2023-04-16T01:47:48;70.77;;;26.00;;
3443;SDS011;1736;52.068;6.968;2023-04-16T01:50:15;62.23;;;24.90;;
3443;SDS011;1736;52.068;6.968;2023-04-16T01:52:42;61.57;;;24.87;;
3443;SDS011;1736;52.068;6.968;2023-04-16T01:55:11;61.90;;;24.50;;
3443;SDS011;1736;52.068;6.968;2023-04-16T01:57:38;67.60;;;26.40;;
3443;SDS011;1736;52.068;6.968;2023-04-16T02:00:05;66.90;;;25.07;;
3443;SDS011;1736;52.068;6.968;2023-04-16T02:02:33;67.50;;;26.63;;
3443;SDS011;1736;52.068;6.968;2023-04-16T02:05:00;70.63;;;26.03;;
3443;SDS011;1736;52.068;6.968;2023-04-16T02:07:27;71.20;;;25.83;;
3443;SDS011;1736;52.068;6.968;2023-04-16T02:09:55;68.80;;;27.60;;
3443;SDS011;1736;52.068;6.968;2023-04-16T02:12:24;68.03;;;26.47;;
3443;SDS011;1736;52.068;6.968;2023-04-16T02:14:51;67.53;;;27.83;;
3443;SDS011;1736;52.068;6.968;2023-04-16T02:17:17;73.43;;;26.77;;
3443;SDS011;1736;52.068;6.968;2023-04-16T02:19:44;66.10;;;25.63;;
3443;SDS011;1736;52.068;6.968;2023-04-16T02:22:10;64.47;;;27.37;;
3443;SDS011;1736;52.068;6.968;2023-04-16T02:24:37;54.50;;;25.57;;
3443;SDS011;1736;52.068;6.968;2023-04-16T02:27:03;71.20;;;27.20;;
3443;SDS011;1736;52.068;6.968;2023-04-16T02:29:31;61.87;;;26.10;;
3443;SDS011;1736;52.068;6.968;2023-04-16T02:31:57;56.60;;;26.80;;
3443;SDS011;1736;52.068;6.968;2023-04-16T02:34:24;69.13;;;27.53;;
3443;SDS011;1736;52.068;6.968;2023-04-16T02:36:51;64.90;;;27.07;;
3443;SDS011;1736;52.068;6.968;2023-04-16T02:39:18;57.83;;;26.77;;
3443;SDS011;1736;52.068;6.968;2023-04-16T02:41:44;64.97;;;29.10;;
3443;SDS011;1736;52.068;6.968;2023-04-16T02:44:11;65.67;;;27.17;;
3443;SDS011;1736;52.068;6.968;2023-04-16T02:46:39;69.20;;;25.50;;
3443;SDS011;1736;52.068;6.968;2023-04-16T02:49:05;59.83;;;25.50;;
3443;SDS011;1736;52.068;6.968;2023-04-16T02:54:54;59.67;;;27.50;;
3443;SDS011;1736;52.068;6.968;2023-04-16T02:57:20;72.07;;;27.30;;
3443;SDS011;1736;52.068;6.968;2023-04-16T02:59:47;71.03;;;26.57;;
3443;SDS011;1736;52.068;6.968;2023-04-16T03:02:14;55.27;;;25.73;;
3443;SDS011;1736;52.068;6.968;2023-04-16T03:04:41;59.57;;;26.27;;
3443;SDS011;1736;52.068;6.968;2023-04-16T03:07:08;58.10;;;26.27;;
3443;SDS011;1736;52.068;6.968;2023-04-16T03:09:35;58.63;;;25.63;;
3443;SDS011;1736;52.068;6.968;2023-04-16T03:12:01;52.03;;;25.67;;
3443;SDS011;1736;52.068;6.968;2023-04-16T03:14:28;55.40;;;26.63;;
3443;SDS011;1736;52.068;6.968;2023-04-16T03:16:55;54.30;;;25.13;;
3443;SDS011;1736;52.068;6.968;2023-04-16T03:19:23;56.87;;;23.90;;
3443;SDS011;1736;52.068;6.968;2023-04-16T03:21:49;57.10;;;25.40;;
3443;SDS011;1736;52.068;6.968;2023-04-16T03:24:16;55.30;;;25.60;;
3443;SDS011;1736;52.068;6.968;2023-04-16T03:26:42;51.87;;;24.67;;
3443;SDS011;1736;52.068;6.968;2023-04-16T03:29:09;60.60;;;25.37;;
3443;SDS011;1736;52.068;6.968;2023-04-16T03:31:35;72.63;;;26.10;;
3443;SDS011;1736;52.068;6.968;2023-04-16T03:34:02;54.60;;;26.03;;
3443;SDS011;1736;52.068;6.968;2023-04-16T03:36:30;55.67;;;25.47;;
3443;SDS011;1736;52.068;6.968;2023-04-16T03:38:57;51.23;;;24.83;;
3443;SDS011;1736;52.068;6.968;2023-04-16T03:41:23;50.87;;;23.93;;
3443;SDS011;1736;52.068;6.968;2023-04-16T03:43:50;50.67;;;25.00;;
3443;SDS011;1736;52.068;6.968;2023-04-16T03:46:16;50.30;;;24.77;;
3443;SDS011;1736;52.068;6.968;2023-04-16T03:48:43;46.40;;;24.40;;
3443;SDS011;1736;52.068;6.968;2023-04-16T03:51:10;57.17;;;24.50;;
3443;SDS011;1736;52.068;6.968;2023-04-16T03:53:37;64.33;;;25.67;;
3443;SDS011;1736;52.068;6.968;2023-04-16T03:56:04;47.43;;;23.27;;
3443;SDS011;1736;52.068;6.968;2023-04-16T03:58:31;52.27;;;23.97;;
3443;SDS011;1736;52.068;6.968;2023-04-16T04:00:58;45.10;;;22.90;;
3443;SDS011;1736;52.068;6.968;2023-04-16T04:03:24;54.23;;;24.20;;
3443;SDS011;1736;52.068;6.968;2023-04-16T04:05:51;55.13;;;24.63;;
3443;SDS011;1736;52.068;6.968;2023-04-16T04:08:17;48.10;;;23.47;;
3443;SDS011;1736;52.068;6.968;2023-04-16T04:10:46;49.40;;;23.50;;
3443;SDS011;1736;52.068;6.968;2023-04-16T04:13:13;44.73;;;23.13;;
3443;SDS011;1736;52.068;6.968;2023-04-16T04:15:39;51.33;;;25.00;;
3443;SDS011;1736;52.068;6.968;2023-04-16T04:18:06;50.37;;;22.73;;
3443;SDS011;1736;52.068;6.968;2023-04-16T04:20:32;58.50;;;25.63;;
3443;SDS011;1736;52.068;6.968;2023-04-16T04:22:59;47.03;;;25.07;;
3443;SDS011;1736;52.068;6.968;2023-04-16T04:25:25;50.97;;;23.90;;
3443;SDS011;1736;52.068;6.968;2023-04-16T04:27:53;53.27;;;25.50;;
3443;SDS011;1736;52.068;6.968;2023-04-16T04:30:20;56.13;;;24.30;;
3443;SDS011;1736;52.068;6.968;2023-04-16T04:32:46;59.10;;;25.17;;
3443;SDS011;1736;52.068;6.968;2023-04-16T04:35:13;49.87;;;24.90;;
3443;SDS011;1736;52.068;6.968;2023-04-16T04:37:39;49.20;;;24.97;;
3443;SDS011;1736;52.068;6.968;2023-04-16T04:40:07;49.93;;;24.43;;
3443;SDS011;1736;52.068;6.968;2023-04-16T04:42:35;60.73;;;24.67;;
3443;SDS011;1736;52.068;6.968;2023-04-16T04:45:04;47.73;;;23.47;;
3443;SDS011;1736;52.068;6.968;2023-04-16T04:47:32;43.93;;;23.30;;
3443;SDS011;1736;52.068;6.968;2023-04-16T04:50:05;45.63;;;23.20;;
3443;SDS011;1736;52.068;6.968;2023-04-16T04:52:32;51.43;;;24.83;;
3443;SDS011;1736;52.068;6.968;2023-04-16T04:54:59;49.37;;;23.80;;
3443;SDS011;1736;52.068;6.968;2023-04-16T04:57:25;48.93;;;24.37;;
3443;SDS011;1736;52.068;6.968;2023-04-16T04:59:58;50.10;;;26.87;;
3443;SDS011;1736;52.068;6.968;2023-04-16T05:02:28;44.67;;;23.30;;
3443;SDS011;1736;52.068;6.968;2023-04-16T05:04:55;45.03;;;24.10;;
3443;SDS011;1736;52.068;6.968;2023-04-16T05:07:21;44.13;;;23.43;;
3443;SDS011;1736;52.068;6.968;2023-04-16T05:09:48;50.23;;;23.33;;
3443;SDS011;1736;52.068;6.968;2023-04-16T05:12:14;45.93;;;24.70;;
3443;SDS011;1736;52.068;6.968;2023-04-16T05:14:41;47.20;;;23.93;;
3443;SDS011;1736;52.068;6.968;2023-04-16T05:17:07;46.70;;;24.07;;
3443;SDS011;1736;52.068;6.968;2023-04-16T05:19:36;55.30;;;25.27;;
3443;SDS011;1736;52.068;6.968;2023-04-16T05:22:02;51.77;;;24.80;;
3443;SDS011;1736;52.068;6.968;2023-04-16T05:24:29;42.10;;;22.70;;
3443;SDS011;1736;52.068;6.968;2023-04-16T05:26:56;40.97;;;22.87;;
3443;SDS011;1736;52.068;6.968;2023-04-16T05:29:22;45.60;;;24.07;;
3443;SDS011;1736;52.068;6.968;2023-04-16T05:31:49;45.90;;;24.57;;
3443;SDS011;1736;52.068;6.968;2023-04-16T05:34:16;44.80;;;23.50;;
3443;SDS011;1736;52.068;6.968;2023-04-16T05:36:44;49.50;;;23.57;;
3443;SDS011;1736;52.068;6.968;2023-04-16T05:39:11;48.20;;;24.80;;
3443;SDS011;1736;52.068;6.968;2023-04-16T05:41:37;47.20;;;23.97;;
3443;SDS011;1736;52.068;6.968;2023-04-16T05:44:04;48.60;;;24.53;;
3443;SDS011;1736;52.068;6.968;2023-04-16T05:46:30;44.13;;;23.83;;
3443;SDS011;1736;52.068;6.968;2023-04-16T05:48:57;40.77;;;24.47;;
3443;SDS011;1736;52.068;6.968;2023-04-16T05:51:23;46.80;;;24.53;;
3443;SDS011;1736;52.068;6.968;2023-04-16T05:53:53;43.93;;;23.90;;
3443;SDS011;1736;52.068;6.968;2023-04-16T05:56:19;45.13;;;23.10;;
3443;SDS011;1736;52.068;6.968;2023-04-16T05:58:46;44.03;;;23.23;;
3443;SDS011;1736;52.068;6.968;2023-04-16T06:01:12;45.23;;;23.70;;
3443;SDS011;1736;52.068;6.968;2023-04-16T06:03:39;45.83;;;23.67;;
3443;SDS011;1736;52.068;6.968;2023-04-16T06:06:05;39.43;;;23.30;;
3443;SDS011;1736;52.068;6.968;2023-04-16T06:08:33;42.63;;;23.47;;
3443;SDS011;1736;52.068;6.968;2023-04-16T06:11:01;38.73;;;21.40;;
3443;SDS011;1736;52.068;6.968;2023-04-16T06:13:28;36.13;;;20.60;;
3443;SDS011;1736;52.068;6.968;2023-04-16T06:15:55;38.40;;;21.60;;
3443;SDS011;1736;52.068;6.968;2023-04-16T06:18:21;43.77;;;23.70;;
3443;SDS011;1736;52.068;6.968;2023-04-16T06:20:48;43.33;;;22.23;;
3443;SDS011;1736;52.068;6.968;2023-04-16T06:23:15;38.47;;;23.63;;
3443;SDS011;1736;52.068;6.968;2023-04-16T06:25:41;43.50;;;22.97;;
3443;SDS011;1736;52.068;6.968;2023-04-16T06:28:09;41.63;;;22.70;;
3443;SDS011;1736;52.068;6.968;2023-04-16T06:30:36;46.37;;;23.30;;
3443;SDS011;1736;52.068;6.968;2023-04-16T06:33:02;38.30;;;21.40;;
3443;SDS011;1736;52.068;6.968;2023-04-16T06:35:29;40.43;;;21.63;;
3443;SDS011;1736;52.068;6.968;2023-04-16T06:37:56;42.40;;;23.50;;
3443;SDS011;1736;52.068;6.968;2023-04-16T06:40:22;42.50;;;23.00;;
3443;SDS011;1736;52.068;6.968;2023-04-16T06:42:49;39.73;;;22.53;;
3443;SDS011;1736;52.068;6.968;2023-04-16T06:45:17;39.27;;;22.43;;
3443;SDS011;1736;52.068;6.968;2023-04-16T06:47:43;35.67;;;21.17;;
3443;SDS011;1736;52.068;6.968;2023-04-16T06:50:10;38.00;;;21.63;;
3443;SDS011;1736;52.068;6.968;2023-04-16T06:52:36;43.17;;;22.60;;
3443;SDS011;1736;52.068;6.968;2023-04-16T06:55:03;34.00;;;20.50;;
3443;SDS011;1736;52.068;6.968;2023-04-16T06:57:32;39.27;;;21.30;;
3443;SDS011;1736;52.068;6.968;2023-04-16T06:59:58;44.20;;;20.90;;
3443;SDS011;1736;52.068;6.968;2023-04-16T07:02:26;41.73;;;21.00;;
3443;SDS011;1736;52.068;6.968;2023-04-16T07:04:53;40.30;;;21.67;;
3443;SDS011;1736;52.068;6.968;2023-04-16T07:07:19;33.10;;;18.73;;
3443;SDS011;1736;52.068;6.968;2023-04-16T07:09:46;38.50;;;20.37;;
3443;SDS011;1736;52.068;6.968;2023-04-16T07:12:12;35.37;;;19.97;;
3443;SDS011;1736;52.068;6.968;2023-04-16T07:14:39;31.87;;;19.40;;
3443;SDS011;1736;52.068;6.968;2023-04-16T07:17:06;35.27;;;19.67;;
3443;SDS011;1736;52.068;6.968;2023-04-16T07:19:34;39.00;;;21.80;;
3443;SDS011;1736;52.068;6.968;2023-04-16T07:22:01;39.77;;;20.80;;
3443;SDS011;1736;52.068;6.968;2023-04-16T07:24:27;32.87;;;19.03;;
3443;SDS011;1736;52.068;6.968;2023-04-16T07:26:54;34.67;;;19.80;;
3443;SDS011;1736;52.068;6.968;2023-04-16T07:29:21;31.23;;;18.70;;
3443;SDS011;1736;52.068;6.968;2023-04-16T07:31:47;41.27;;;20.77;;
3443;SDS011;1736;52.068;6.968;2023-04-16T07:34:14;34.17;;;19.40;;
3443;SDS011;1736;52.068;6.968;2023-04-16T07:36:42;38.87;;;21.50;;
3443;SDS011;1736;52.068;6.968;2023-04-16T07:39:08;36.03;;;20.97;;
3443;SDS011;1736;52.068;6.968;2023-04-16T07:41:37;32.50;;;20.80;;
3443;SDS011;1736;52.068;6.968;2023-04-16T07:44:04;35.63;;;20.33;;
3443;SDS011;1736;52.068;6.968;2023-04-16T07:46:31;36.70;;;20.43;;
3443;SDS011;1736;52.068;6.968;2023-04-16T07:48:57;33.77;;;19.70;;
3443;SDS011;1736;52.068;6.968;2023-04-16T07:51:24;38.97;;;21.13;;
3443;SDS011;1736;52.068;6.968;2023-04-16T07:53:52;37.77;;;20.60;;
3443;SDS011;1736;52.068;6.968;2023-04-16T07:56:19;33.73;;;19.57;;
3443;SDS011;1736;52.068;6.968;2023-04-16T07:58:45;37.77;;;21.50;;
3443;SDS011;1736;52.068;6.968;2023-04-16T08:01:12;35.90;;;20.80;;
3443;SDS011;1736;52.068;6.968;2023-04-16T08:03:39;34.30;;;20.60;;
3443;SDS011;1736;52.068;6.968;2023-04-16T08:06:05;33.30;;;20.37;;
3443;SDS011;1736;52.068;6.968;2023-04-16T08:08:32;36.20;;;20.53;;
3443;SDS011;1736;52.068;6.968;2023-04-16T08:11:00;32.90;;;20.27;;
3443;SDS011;1736;52.068;6.968;2023-04-16T08:13:26;30.87;;;19.43;;
3443;SDS011;1736;52.068;6.968;2023-04-16T08:15:53;39.17;;;21.30;;
3443;SDS011;1736;52.068;6.968;2023-04-16T08:18:19;41.10;;;22.17;;
3443;SDS011;1736;52.068;6.968;2023-04-16T08:20:46;43.30;;;21.67;;
3443;SDS011;1736;52.068;6.968;2023-04-16T08:23:12;34.03;;;20.40;;
3443;SDS011;1736;52.068;6.968;2023-04-16T08:25:39;37.57;;;21.40;;
3443;SDS011;1736;52.068;6.968;2023-04-16T08:28:07;41.90;;;22.40;;
3443;SDS011;1736;52.068;6.968;2023-04-16T08:30:34;34.53;;;21.47;;
3443;SDS011;1736;52.068;6.968;2023-04-16T08:33:00;36.83;;;20.57;;
3443;SDS011;1736;52.068;6.968;2023-04-16T08:35:27;35.90;;;20.87;;
3443;SDS011;1736;52.068;6.968;2023-04-16T08:37:53;40.13;;;21.77;;
3443;SDS011;1736;52.068;6.968;2023-04-16T08:40:21;36.57;;;21.00;;
3443;SDS011;1736;52.068;6.968;2023-04-16T08:42:51;32.80;;;19.93;;
3443;SDS011;1736;52.068;6.968;2023-04-16T08:45:21;33.10;;;19.27;;
3443;SDS011;1736;52.068;6.968;2023-04-16T08:47:48;31.47;;;19.77;;
3443;SDS011;1736;52.068;6.968;2023-04-16T08:50:17;34.00;;;21.20;;
3443;SDS011;1736;52.068;6.968;2023-04-16T08:52:49;31.60;;;19.83;;
3443;SDS011;1736;52.068;6.968;2023-04-16T08:55:17;34.30;;;21.03;;
3443;SDS011;1736;52.068;6.968;2023-04-16T08:57:47;36.27;;;21.13;;
3443;SDS011;1736;52.068;6.968;2023-04-16T09:00:17;34.83;;;20.63;;
3443;SDS011;1736;52.068;6.968;2023-04-16T09:02:46;31.70;;;19.87;;
3443;SDS011;1736;52.068;6.968;2023-04-16T09:05:14;32.60;;;21.40;;
3443;SDS011;1736;52.068;6.968;2023-04-16T09:07:42;30.83;;;19.90;;
3443;SDS011;1736;52.068;6.968;2023-04-16T09:10:10;34.63;;;20.97;;
3443;SDS011;1736;52.068;6.968;2023-04-16T09:12:37;29.80;;;19.23;;
3443;SDS011;1736;52.068;6.968;2023-04-16T09:15:05;28.80;;;18.90;;
3443;SDS011;1736;52.068;6.968;2023-04-16T09:17:34;32.03;;;19.77;;
3443;SDS011;1736;52.068;6.968;2023-04-16T09:20:03;29.80;;;18.80;;
3443;SDS011;1736;52.068;6.968;2023-04-16T09:22:32;29.90;;;19.13;;
3443;SDS011;1736;52.068;6.968;2023-04-16T09:24:59;30.20;;;19.57;;
3443;SDS011;1736;52.068;6.968;2023-04-16T09:27:26;30.90;;;18.37;;
3443;SDS011;1736;52.068;6.968;2023-04-16T09:29:53;30.57;;;18.00;;
3443;SDS011;1736;52.068;6.968;2023-04-16T09:32:23;28.93;;;18.33;;
3443;SDS011;1736;52.068;6.968;2023-04-16T09:34:54;29.80;;;17.60;;
3443;SDS011;1736;52.068;6.968;2023-04-16T09:37:23;25.53;;;17.03;;
3443;SDS011;1736;52.068;6.968;2023-04-16T09:39:54;29.13;;;18.03;;
3443;SDS011;1736;52.068;6.968;2023-04-16T09:42:22;25.13;;;17.03;;
3443;SDS011;1736;52.068;6.968;2023-04-16T09:44:51;29.40;;;18.17;;
3443;SDS011;1736;52.068;6.968;2023-04-16T09:47:20;32.20;;;19.20;;
3443;SDS011;1736;52.068;6.968;2023-04-16T09:49:49;30.27;;;17.70;;
3443;SDS011;1736;52.068;6.968;2023-04-16T09:52:24;31.07;;;18.53;;
3443;SDS011;1736;52.068;6.968;2023-04-16T09:54:52;26.70;;;16.80;;
3443;SDS011;1736;52.068;6.968;2023-04-16T09:57:25;26.87;;;16.63;;
3443;SDS011;1736;52.068;6.968;2023-04-16T09:59:51;28.73;;;17.80;;
3443;SDS011;1736;52.068;6.968;2023-04-16T10:02:24;29.53;;;18.10;;
3443;SDS011;1736;52.068;6.968;2023-04-16T10:04:52;27.90;;;18.27;;
3443;SDS011;1736;52.068;6.968;2023-04-16T10:07:19;28.97;;;16.83;;
3443;SDS011;1736;52.068;6.968;2023-04-16T10:09:47;26.37;;;17.83;;
3443;SDS011;1736;52.068;6.968;2023-04-16T10:12:16;25.20;;;15.80;;
3443;SDS011;1736;52.068;6.968;2023-04-16T10:14:43;30.27;;;18.53;;
3443;SDS011;1736;52.068;6.968;2023-04-16T10:17:09;26.40;;;16.10;;
3443;SDS011;1736;52.068;6.968;2023-04-16T10:19:36;25.10;;;15.40;;
3443;SDS011;1736;52.068;6.968;2023-04-16T10:22:03;21.00;;;15.20;;
3443;SDS011;1736;52.068;6.968;2023-04-16T10:24:31;23.30;;;15.70;;
3443;SDS011;1736;52.068;6.968;2023-04-16T10:26:59;22.10;;;14.23;;
3443;SDS011;1736;52.068;6.968;2023-04-16T10:29:27;27.13;;;14.73;;
3443;SDS011;1736;52.068;6.968;2023-04-16T10:31:54;21.07;;;14.53;;
3443;SDS011;1736;52.068;6.968;2023-04-16T10:34:22;26.40;;;15.87;;
3443;SDS011;1736;52.068;6.968;2023-04-16T10:36:50;29.73;;;16.73;;
3443;SDS011;1736;52.068;6.968;2023-04-16T10:39:19;19.23;;;13.87;;
3443;SDS011;1736;52.068;6.968;2023-04-16T10:41:47;21.23;;;13.70;;
3443;SDS011;1736;52.068;6.968;2023-04-16T10:44:15;20.23;;;14.00;;
3443;SDS011;1736;52.068;6.968;2023-04-16T10:46:43;24.17;;;15.00;;
3443;SDS011;1736;52.068;6.968;2023-04-16T10:49:13;21.90;;;14.67;;
3443;SDS011;1736;52.068;6.968;2023-04-16T10:51:42;18.80;;;13.27;;
3443;SDS011;1736;52.068;6.968;2023-04-16T10:54:18;19.47;;;14.00;;
3443;SDS011;1736;52.068;6.968;2023-04-16T10:56:48;17.17;;;12.00;;
3443;SDS011;1736;52.068;6.968;2023-04-16T10:59:24;21.33;;;13.53;;
3443;SDS011;1736;52.068;6.968;2023-04-16T11:01:55;27.20;;;14.00;;
3443;SDS011;1736;52.068;6.968;2023-04-16T11:04:26;17.03;;;12.60;;
3443;SDS011;1736;52.068;6.968;2023-04-16T11:06:59;19.37;;;12.77;;
3443;SDS011;1736;52.068;6.968;2023-04-16T11:09:41;20.33;;;12.20;;
3443;SDS011;1736;52.068;6.968;2023-04-16T11:12:10;20.23;;;12.20;;
3443;SDS011;1736;52.068;6.968;2023-04-16T11:14:39;20.43;;;13.50;;
3443;SDS011;1736;52.068;6.968;2023-04-16T11:17:06;20.60;;;13.33;;
3443;SDS011;1736;52.068;6.968;2023-04-16T11:19:34;16.47;;;12.10;;
3443;SDS011;1736;52.068;6.968;2023-04-16T11:22:01;21.30;;;13.50;;
3443;SDS011;1736;52.068;6.968;2023-04-16T11:24:28;16.37;;;12.27;;
3443;SDS011;1736;52.068;6.968;2023-04-16T11:26:55;19.57;;;11.80;;
3443;SDS011;1736;52.068;6.968;2023-04-16T11:29:22;19.40;;;11.33;;
3443;SDS011;1736;52.068;6.968;2023-04-16T11:31:50;18.40;;;12.20;;
3443;SDS011;1736;52.068;6.968;2023-04-16T11:34:17;17.57;;;12.23;;
3443;SDS011;1736;52.068;6.968;2023-04-16T11:36:45;20.37;;;12.50;;
3443;SDS011;1736;52.068;6.968;2023-04-16T11:39:12;17.63;;;11.53;;
3443;SDS011;1736;52.068;6.968;2023-04-16T11:41:41;16.10;;;11.50;;
3443;SDS011;1736;52.068;6.968;2023-04-16T11:44:18;18.43;;;12.13;;
3443;SDS011;1736;52.068;6.968;2023-04-16T11:46:46;18.70;;;10.77;;
3443;SDS011;1736;52.068;6.968;2023-04-16T11:49:14;15.20;;;11.17;;
3443;SDS011;1736;52.068;6.968;2023-04-16T11:51:41;15.40;;;11.33;;
3443;SDS011;1736;52.068;6.968;2023-04-16T11:54:09;21.67;;;12.10;;
3443;SDS011;1736;52.068;6.968;2023-04-16T11:56:44;14.87;;;10.83;;
3443;SDS011;1736;52.068;6.968;2023-04-16T11:59:13;20.60;;;11.30;;
3443;SDS011;1736;52.068;6.968;2023-04-16T12:01:41;16.87;;;10.73;;
3443;SDS011;1736;52.068;6.968;2023-04-16T12:04:10;15.80;;;11.20;;
3443;SDS011;1736;52.068;6.968;2023-04-16T12:06:39;15.00;;;10.83;;
3443;SDS011;1736;52.068;6.968;2023-04-16T12:09:21;21.20;;;11.40;;
3443;SDS011;1736;52.068;6.968;2023-04-16T12:11:48;17.70;;;12.00;;
3443;SDS011;1736;52.068;6.968;2023-04-16T12:14:15;17.47;;;11.60;;
3443;SDS011;1736;52.068;6.968;2023-04-16T12:16:42;15.33;;;11.53;;
3443;SDS011;1736;52.068;6.968;2023-04-16T12:19:09;19.10;;;12.60;;
3443;SDS011;1736;52.068;6.968;2023-04-16T12:21:37;18.57;;;11.43;;
3443;SDS011;1736;52.068;6.968;2023-04-16T12:24:07;15.10;;;11.77;;
3443;SDS011;1736;52.068;6.968;2023-04-16T12:26:35;17.33;;;12.53;;
3443;SDS011;1736;52.068;6.968;2023-04-16T12:29:15;18.30;;;12.00;;
3443;SDS011;1736;52.068;6.968;2023-04-16T12:31:42;14.73;;;10.40;;
3443;SDS011;1736;52.068;6.968;2023-04-16T12:34:09;16.43;;;11.30;;
3443;SDS011;1736;52.068;6.968;2023-04-16T12:36:36;17.03;;;11.17;;
3443;SDS011;1736;52.068;6.968;2023-04-16T12:39:04;16.93;;;12.50;;
3443;SDS011;1736;52.068;6.968;2023-04-16T12:41:31;20.33;;;12.43;;
3443;SDS011;1736;52.068;6.968;2023-04-16T12:44:04;19.30;;;11.83;;
3443;SDS011;1736;52.068;6.968;2023-04-16T12:46:33;16.20;;;12.17;;
3443;SDS011;1736;52.068;6.968;2023-04-16T12:49:01;17.57;;;11.47;;
3443;SDS011;1736;52.068;6.968;2023-04-16T12:51:27;16.43;;;11.33;;
3443;SDS011;1736;52.068;6.968;2023-04-16T12:53:54;18.90;;;12.70;;
3443;SDS011;1736;52.068;6.968;2023-04-16T12:56:22;24.23;;;11.33;;
3443;SDS011;1736;52.068;6.968;2023-04-16T12:58:48;17.00;;;12.13;;
3443;SDS011;1736;52.068;6.968;2023-04-16T13:01:16;15.33;;;11.30;;
3443;SDS011;1736;52.068;6.968;2023-04-16T13:03:43;22.13;;;12.67;;
3443;SDS011;1736;52.068;6.968;2023-04-16T13:06:09;19.97;;;13.07;;
3443;SDS011;1736;52.068;6.968;2023-04-16T13:08:36;17.27;;;12.10;;
3443;SDS011;1736;52.068;6.968;2023-04-16T13:11:03;15.83;;;11.60;;
3443;SDS011;1736;52.068;6.968;2023-04-16T13:13:31;16.97;;;12.20;;
3443;SDS011;1736;52.068;6.968;2023-04-16T13:15:58;17.67;;;11.40;;
3443;SDS011;1736;52.068;6.968;2023-04-16T13:18:24;15.17;;;11.90;;
3443;SDS011;1736;52.068;6.968;2023-04-16T13:20:51;19.63;;;11.30;;
3443;SDS011;1736;52.068;6.968;2023-04-16T13:23:18;16.17;;;11.47;;
3443;SDS011;1736;52.068;6.968;2023-04-16T13:25:45;17.37;;;12.23;;
3443;SDS011;1736;52.068;6.968;2023-04-16T13:28:11;16.10;;;11.83;;
3443;SDS011;1736;52.068;6.968;2023-04-16T13:30:39;16.43;;;12.30;;
3443;SDS011;1736;52.068;6.968;2023-04-16T13:33:06;18.60;;;11.90;;
3443;SDS011;1736;52.068;6.968;2023-04-16T13:35:33;19.67;;;12.10;;
3443;SDS011;1736;52.068;6.968;2023-04-16T13:38:00;20.83;;;12.97;;
3443;SDS011;1736;52.068;6.968;2023-04-16T13:40:26;20.03;;;12.70;;
3443;SDS011;1736;52.068;6.968;2023-04-16T13:42:53;18.00;;;12.03;;
3443;SDS011;1736;52.068;6.968;2023-04-16T13:45:20;16.90;;;11.67;;
3443;SDS011;1736;52.068;6.968;2023-04-16T13:47:47;17.20;;;11.90;;
3443;SDS011;1736;52.068;6.968;2023-04-16T13:50:14;19.10;;;12.57;;
3443;SDS011;1736;52.068;6.968;2023-04-16T13:52:41;14.63;;;11.00;;
3443;SDS011;1736;52.068;6.968;2023-04-16T13:55:08;15.87;;;11.53;;
3443;SDS011;1736;52.068;6.968;2023-04-16T13:57:37;16.57;;;11.23;;
3443;SDS011;1736;52.068;6.968;2023-04-16T14:00:05;21.30;;;13.40;;
3443;SDS011;1736;52.068;6.968;2023-04-16T14:02:33;19.20;;;10.90;;
3443;SDS011;1736;52.068;6.968;2023-04-16T14:05:01;20.70;;;12.20;;
3443;SDS011;1736;52.068;6.968;2023-04-16T14:07:28;15.90;;;11.37;;
3443;SDS011;1736;52.068;6.968;2023-04-16T14:09:54;14.77;;;11.13;;
3443;SDS011;1736;52.068;6.968;2023-04-16T14:12:21;15.43;;;11.57;;
3443;SDS011;1736;52.068;6.968;2023-04-16T14:14:48;19.30;;;11.37;;
3443;SDS011;1736;52.068;6.968;2023-04-16T14:17:14;14.53;;;11.30;;
3443;SDS011;1736;52.068;6.968;2023-04-16T14:19:41;15.60;;;10.43;;
3443;SDS011;1736;52.068;6.968;2023-04-16T14:22:09;15.40;;;10.80;;
3443;SDS011;1736;52.068;6.968;2023-04-16T14:24:35;15.93;;;10.70;;
3443;SDS011;1736;52.068;6.968;2023-04-16T14:27:02;14.10;;;10.33;;
3443;SDS011;1736;52.068;6.968;2023-04-16T14:29:29;17.90;;;10.63;;
3443;SDS011;1736;52.068;6.968;2023-04-16T14:31:55;15.67;;;10.13;;
3443;SDS011;1736;52.068;6.968;2023-04-16T14:34:22;16.13;;;10.50;;
3443;SDS011;1736;52.068;6.968;2023-04-16T14:36:49;19.20;;;11.63;;
3443;SDS011;1736;52.068;6.968;2023-04-16T14:39:17;19.43;;;11.97;;
3443;SDS011;1736;52.068;6.968;2023-04-16T14:41:44;16.03;;;11.43;;
3443;SDS011;1736;52.068;6.968;2023-04-16T14:44:10;16.93;;;11.57;;
3443;SDS011;1736;52.068;6.968;2023-04-16T14:46:37;25.57;;;11.73;;
3443;SDS011;1736;52.068;6.968;2023-04-16T14:49:05;17.17;;;11.97;;
3443;SDS011;1736;52.068;6.968;2023-04-16T14:51:31;17.30;;;11.77;;
3443;SDS011;1736;52.068;6.968;2023-04-16T14:53:58;15.40;;;10.67;;